createdAt,value
2019-05-18T00:00:10.301Z,13.20
2019-05-18T00:02:39.685Z,13.20
2019-05-18T00:05:10.875Z,13.10
2019-05-18T00:07:40.254Z,13.10
2019-05-18T00:10:11.050Z,13.00
2019-05-18T00:12:40.515Z,13.00
2019-05-18T00:15:10.923Z,12.90
2019-05-18T00:17:40.334Z,12.90
2019-05-18T00:20:10.622Z,12.90
2019-05-18T00:22:40.069Z,12.90
2019-05-18T00:25:10.191Z,13.00
2019-05-18T00:27:39.574Z,12.90
2019-05-18T00:30:10.073Z,12.90
2019-05-18T00:32:39.457Z,12.90
2019-05-18T00:35:09.148Z,12.90
2019-05-18T00:37:38.528Z,12.90
2019-05-18T00:40:08.814Z,12.90
2019-05-18T00:42:38.207Z,12.90
2019-05-18T00:45:08.885Z,12.90
2019-05-18T00:47:41.913Z,12.90
2019-05-18T00:50:09.983Z,12.90
2019-05-18T00:52:39.366Z,12.90
2019-05-18T00:55:10.361Z,12.80
2019-05-18T00:57:39.746Z,12.70
2019-05-18T01:00:10.700Z,12.70
2019-05-18T01:02:40.098Z,12.60
2019-05-18T01:05:10.182Z,12.60
2019-05-18T01:07:39.558Z,12.50
2019-05-18T01:10:09.648Z,12.50
2019-05-18T01:12:39.098Z,12.50
2019-05-18T01:15:09.495Z,12.50
2019-05-18T01:17:38.876Z,12.50
2019-05-18T01:20:09.569Z,12.50
2019-05-18T01:22:38.952Z,12.40
2019-05-18T01:25:09.149Z,12.40
2019-05-18T01:27:38.533Z,12.40
2019-05-18T01:30:10.025Z,12.30
2019-05-18T01:32:39.406Z,12.30
2019-05-18T01:35:10.773Z,12.20
2019-05-18T01:37:40.149Z,12.20
2019-05-18T01:40:10.339Z,12.20
2019-05-18T01:42:39.730Z,12.20
2019-05-18T01:45:16.952Z,12.20
2019-05-18T01:47:41.344Z,12.20
2019-05-18T01:50:11.106Z,12.10
2019-05-18T01:52:40.495Z,12.10
2019-05-18T01:55:10.476Z,12.10
2019-05-18T01:57:39.867Z,12.10
2019-05-18T02:00:10.654Z,12.10
2019-05-18T02:02:40.033Z,12.10
2019-05-18T02:05:10.152Z,12.00
2019-05-18T02:07:39.543Z,12.00
2019-05-18T02:10:09.537Z,12.00
2019-05-18T02:12:38.901Z,12.00
2019-05-18T02:15:09.383Z,12.00
2019-05-18T02:17:38.776Z,12.00
2019-05-18T02:20:08.869Z,11.90
2019-05-18T02:22:38.260Z,11.90
2019-05-18T02:25:08.441Z,11.90
2019-05-18T02:27:37.828Z,11.90
2019-05-18T02:30:09.574Z,11.90
2019-05-18T02:32:38.937Z,11.90
2019-05-18T02:35:08.733Z,11.90
2019-05-18T02:37:38.130Z,11.90
2019-05-18T02:40:07.907Z,11.90
2019-05-18T02:42:37.294Z,11.90
2019-05-18T02:45:10.038Z,11.90
2019-05-18T02:47:39.423Z,11.90
2019-05-18T02:50:09.507Z,11.90
2019-05-18T02:52:38.903Z,11.90
2019-05-18T02:55:08.937Z,12.00
2019-05-18T02:57:38.381Z,11.90
2019-05-18T03:00:11.826Z,11.90
2019-05-18T03:02:41.201Z,11.90
2019-05-18T03:05:10.958Z,11.90
2019-05-18T03:07:40.349Z,12.00
2019-05-18T03:10:10.031Z,12.00
2019-05-18T03:12:39.487Z,12.00
2019-05-18T03:15:09.805Z,12.00
2019-05-18T03:17:39.230Z,11.90
2019-05-18T03:20:09.757Z,12.00
2019-05-18T03:22:39.147Z,12.00
2019-05-18T03:25:09.034Z,12.00
2019-05-18T03:27:38.425Z,12.00
2019-05-18T03:30:12.149Z,12.00
2019-05-18T03:32:41.500Z,11.90
2019-05-18T03:35:12.493Z,12.00
2019-05-18T03:37:41.857Z,12.00
2019-05-18T03:40:11.940Z,12.00
2019-05-18T03:42:41.327Z,12.00
2019-05-18T03:45:11.049Z,12.00
2019-05-18T03:47:40.431Z,12.00
2019-05-18T03:50:10.320Z,12.00
2019-05-18T03:52:39.708Z,12.00
2019-05-18T03:55:09.332Z,12.00
2019-05-18T03:57:38.706Z,12.00
2019-05-18T04:00:09.096Z,12.00
2019-05-18T04:02:38.549Z,12.00
2019-05-18T04:05:09.335Z,12.00
2019-05-18T04:07:38.719Z,12.00
2019-05-18T04:10:10.038Z,12.00
2019-05-18T04:12:39.420Z,12.00
2019-05-18T04:15:10.922Z,12.00
2019-05-18T04:17:40.308Z,12.00
2019-05-18T04:20:10.840Z,12.00
2019-05-18T04:22:40.221Z,12.10
2019-05-18T04:25:09.833Z,12.10
2019-05-18T04:27:39.248Z,12.10
2019-05-18T04:30:09.710Z,12.10
2019-05-18T04:32:39.136Z,12.10
2019-05-18T04:35:09.596Z,12.10
2019-05-18T04:37:38.998Z,12.20
2019-05-18T04:40:10.664Z,12.20
2019-05-18T04:42:40.043Z,12.20
2019-05-18T04:45:10.140Z,12.20
2019-05-18T04:47:39.512Z,12.30
2019-05-18T04:50:10.203Z,12.30
2019-05-18T04:52:39.593Z,12.30
2019-05-18T04:55:08.969Z,12.30
2019-05-18T04:57:38.358Z,12.40
2019-05-18T05:00:09.439Z,12.40
2019-05-18T05:02:38.827Z,12.40
2019-05-18T05:05:08.618Z,12.50
2019-05-18T05:07:37.999Z,12.50
2019-05-18T05:10:08.093Z,12.50
2019-05-18T05:12:37.478Z,12.50
2019-05-18T05:15:07.574Z,12.50
2019-05-18T05:17:37.398Z,12.50
2019-05-18T05:20:19.221Z,12.60
2019-05-18T05:22:38.694Z,12.60
2019-05-18T05:25:08.477Z,12.60
2019-05-18T05:27:37.905Z,12.70
2019-05-18T05:30:08.504Z,12.80
2019-05-18T05:32:37.981Z,12.90
2019-05-18T05:35:08.492Z,13.00
2019-05-18T05:37:37.954Z,13.10
2019-05-18T05:40:08.369Z,13.20
2019-05-18T05:42:37.976Z,13.20
2019-05-18T05:45:08.059Z,13.30
2019-05-18T05:47:37.446Z,13.30
2019-05-18T05:50:10.284Z,13.50
2019-05-18T05:52:39.683Z,13.50
2019-05-18T05:55:10.268Z,13.60
2019-05-18T05:57:39.649Z,13.70
2019-05-18T06:00:10.139Z,13.80
2019-05-18T06:02:39.524Z,13.90
2019-05-18T06:05:09.514Z,14.00
2019-05-18T06:07:38.897Z,14.00
2019-05-18T06:10:09.313Z,14.10
2019-05-18T06:12:38.778Z,14.10
2019-05-18T06:15:10.083Z,14.20
2019-05-18T06:17:39.468Z,14.30
2019-05-18T06:20:10.454Z,14.40
2019-05-18T06:22:39.848Z,14.50
2019-05-18T06:25:09.739Z,14.50
2019-05-18T06:27:39.129Z,14.60
2019-05-18T06:30:09.519Z,14.60
2019-05-18T06:32:38.906Z,14.70
2019-05-18T06:35:09.328Z,14.80
2019-05-18T06:37:38.720Z,14.90
2019-05-18T06:40:10.116Z,14.90
2019-05-18T06:42:39.504Z,14.90
2019-05-18T06:45:10.589Z,15.00
2019-05-18T06:47:39.980Z,14.90
2019-05-18T06:50:12.239Z,14.80
2019-05-18T06:52:41.277Z,14.80
2019-05-18T06:55:11.157Z,14.90
2019-05-18T06:57:41.350Z,14.90
2019-05-18T07:00:15.670Z,15.00
2019-05-18T07:02:45.063Z,14.90
2019-05-18T07:05:14.628Z,14.90
2019-05-18T07:07:44.016Z,14.80
2019-05-18T07:10:13.610Z,14.70
2019-05-18T07:12:43.130Z,14.80
2019-05-18T07:15:13.719Z,14.80
2019-05-18T07:17:43.109Z,14.70
2019-05-18T07:20:13.291Z,14.70
2019-05-18T07:22:42.692Z,14.70
2019-05-18T07:25:12.400Z,14.70
2019-05-18T07:27:41.781Z,14.70
2019-05-18T07:30:12.291Z,14.70
2019-05-18T07:32:41.678Z,14.70
2019-05-18T07:35:11.866Z,14.80
2019-05-18T07:37:41.253Z,14.80
2019-05-18T07:40:12.043Z,14.90
2019-05-18T07:42:41.498Z,14.90
2019-05-18T07:45:11.581Z,14.90
2019-05-18T07:47:40.959Z,14.90
2019-05-18T07:50:11.454Z,14.90
2019-05-18T07:52:41.012Z,14.90
2019-05-18T07:55:11.083Z,15.00
2019-05-18T07:57:40.479Z,15.10
2019-05-18T08:00:10.672Z,15.20
2019-05-18T08:02:40.061Z,15.30
2019-05-18T08:05:09.979Z,15.40
2019-05-18T08:07:39.443Z,15.50
2019-05-18T08:10:10.473Z,15.60
2019-05-18T08:12:39.854Z,15.60
2019-05-18T08:15:11.813Z,15.70
2019-05-18T08:17:41.788Z,15.80
2019-05-18T08:20:11.918Z,15.90
2019-05-18T08:22:41.302Z,16.00
2019-05-18T08:25:11.096Z,16.00
2019-05-18T08:27:40.507Z,16.10
2019-05-18T08:30:10.591Z,16.30
2019-05-18T08:32:39.984Z,16.40
2019-05-18T08:35:10.090Z,16.50
2019-05-18T08:37:39.488Z,16.70
2019-05-18T08:40:10.282Z,16.70
2019-05-18T08:42:39.946Z,16.70
2019-05-18T08:45:11.542Z,16.80
2019-05-18T08:47:41.899Z,16.90
2019-05-18T08:50:11.582Z,17.00
2019-05-18T08:52:40.977Z,17.20
2019-05-18T08:55:10.853Z,17.20
2019-05-18T08:57:40.240Z,17.30
2019-05-18T09:00:10.735Z,17.30
2019-05-18T09:02:40.181Z,17.30
2019-05-18T09:05:10.373Z,17.40
2019-05-18T09:07:39.766Z,17.50
2019-05-18T09:10:09.896Z,17.50
2019-05-18T09:12:40.424Z,17.60
2019-05-18T09:15:10.512Z,17.70
2019-05-18T09:17:39.902Z,17.80
2019-05-18T09:20:10.493Z,18.00
2019-05-18T09:22:39.873Z,18.10
2019-05-18T09:25:10.067Z,18.30
2019-05-18T09:27:39.469Z,18.50
2019-05-18T09:30:11.145Z,18.70
2019-05-18T09:32:40.620Z,18.70
2019-05-18T09:35:12.015Z,18.70
2019-05-18T09:37:41.395Z,18.80
2019-05-18T09:40:11.287Z,19.00
2019-05-18T09:42:40.667Z,19.20
2019-05-18T09:45:11.864Z,19.40
2019-05-18T09:47:41.247Z,19.50
2019-05-18T09:50:12.738Z,19.70
2019-05-18T09:52:45.471Z,19.80
2019-05-18T09:55:14.238Z,19.80
2019-05-18T09:57:43.728Z,20.00
2019-05-18T10:00:14.336Z,20.10
2019-05-18T10:02:43.722Z,20.30
2019-05-18T10:05:13.474Z,20.30
2019-05-18T10:07:42.893Z,20.50
2019-05-18T10:10:13.082Z,20.70
2019-05-18T10:12:42.461Z,20.70
2019-05-18T10:15:12.278Z,20.80
2019-05-18T10:17:41.677Z,20.90
2019-05-18T10:20:11.668Z,21.10
2019-05-18T10:22:53.430Z,21.20
2019-05-18T10:25:12.871Z,21.40
2019-05-18T10:27:42.253Z,21.40
2019-05-18T10:30:12.738Z,21.50
2019-05-18T10:32:42.134Z,21.60
2019-05-18T10:35:13.024Z,21.50
2019-05-18T10:37:42.630Z,21.50
2019-05-18T10:40:12.650Z,21.60
2019-05-18T10:42:42.049Z,21.50
2019-05-18T10:45:12.330Z,21.50
2019-05-18T10:47:41.715Z,21.50
2019-05-18T10:50:11.506Z,21.60
2019-05-18T10:52:41.133Z,21.50
2019-05-18T10:55:11.118Z,21.50
2019-05-18T10:57:40.509Z,21.60
2019-05-18T11:00:12.312Z,21.60
2019-05-18T11:02:41.843Z,21.60
2019-05-18T11:05:12.315Z,21.70
2019-05-18T11:07:41.836Z,21.90
2019-05-18T11:10:12.461Z,22.10
2019-05-18T11:12:41.869Z,22.30
2019-05-18T11:15:12.353Z,22.60
2019-05-18T11:17:41.906Z,22.80
2019-05-18T11:20:12.992Z,22.90
2019-05-18T11:22:42.373Z,22.90
2019-05-18T11:25:12.664Z,23.00
2019-05-18T11:27:42.119Z,23.20
2019-05-18T11:30:13.719Z,23.40
2019-05-18T11:32:43.154Z,23.80
2019-05-18T11:35:13.333Z,24.20
2019-05-18T11:37:42.732Z,24.40
2019-05-18T11:40:13.115Z,24.30
2019-05-18T11:42:42.503Z,23.90
2019-05-18T11:45:15.731Z,23.80
2019-05-18T11:47:45.288Z,23.50
2019-05-18T11:50:16.747Z,23.50
2019-05-18T11:52:46.201Z,23.40
2019-05-18T11:55:16.394Z,23.60
2019-05-18T11:57:45.771Z,23.50
2019-05-18T12:00:17.358Z,23.20
2019-05-18T12:02:46.737Z,23.60
2019-05-18T12:05:16.631Z,23.60
2019-05-18T12:07:46.009Z,23.70
2019-05-18T12:10:18.585Z,24.20
2019-05-18T12:12:50.390Z,24.60
2019-05-18T12:15:21.745Z,24.90
2019-05-18T12:17:51.135Z,25.20
2019-05-18T12:20:21.159Z,24.80
2019-05-18T12:22:50.543Z,24.60
2019-05-18T12:25:20.571Z,24.70
2019-05-18T12:27:50.042Z,25.00
2019-05-18T12:30:20.270Z,25.30
2019-05-18T12:32:49.668Z,25.50
2019-05-18T12:35:20.041Z,25.40
2019-05-18T12:37:49.460Z,25.40
2019-05-18T12:40:21.725Z,25.30
2019-05-18T12:42:51.147Z,25.00
2019-05-18T12:45:21.146Z,24.80
2019-05-18T12:47:50.540Z,24.60
2019-05-18T12:50:21.089Z,24.40
2019-05-18T12:52:50.478Z,24.40
2019-05-18T12:55:20.465Z,24.00
2019-05-18T12:57:49.875Z,23.80
2019-05-18T13:00:20.172Z,24.00
2019-05-18T13:02:49.556Z,24.00
2019-05-18T13:05:19.476Z,23.80
2019-05-18T13:07:48.858Z,23.70
2019-05-18T13:10:19.651Z,23.60
2019-05-18T13:12:49.041Z,23.60
2019-05-18T13:15:19.230Z,23.40
2019-05-18T13:17:48.610Z,23.30
2019-05-18T13:20:20.351Z,23.30
2019-05-18T13:22:49.683Z,23.20
2019-05-18T13:25:20.079Z,23.10
2019-05-18T13:27:49.470Z,23.40
2019-05-18T13:30:20.131Z,23.40
2019-05-18T13:32:49.604Z,23.60
2019-05-18T13:35:19.495Z,23.70
2019-05-18T13:37:48.879Z,23.60
2019-05-18T13:40:19.185Z,23.40
2019-05-18T13:42:48.581Z,23.00
2019-05-18T13:45:18.912Z,23.10
2019-05-18T13:47:48.258Z,23.20
2019-05-18T13:50:18.251Z,23.30
2019-05-18T13:52:47.681Z,23.20
2019-05-18T13:55:17.598Z,23.10
2019-05-18T13:57:46.984Z,23.40
2019-05-18T14:00:18.551Z,23.60
2019-05-18T14:02:48.166Z,23.40
2019-05-18T14:05:18.154Z,23.50
2019-05-18T14:07:47.567Z,23.40
2019-05-18T14:10:17.578Z,23.20
2019-05-18T14:12:46.950Z,23.20
2019-05-18T14:15:16.841Z,23.40
2019-05-18T14:17:46.593Z,23.50
2019-05-18T14:20:18.862Z,23.80
2019-05-18T14:22:48.256Z,23.90
2019-05-18T14:25:20.014Z,23.90
2019-05-18T14:27:49.523Z,24.00
2019-05-18T14:30:21.598Z,23.70
2019-05-18T14:32:50.987Z,23.60
2019-05-18T14:35:20.613Z,23.40
2019-05-18T14:37:50.003Z,23.30
2019-05-18T14:40:19.633Z,23.40
2019-05-18T14:42:49.040Z,23.70
2019-05-18T14:45:19.638Z,24.00
2019-05-18T14:47:49.022Z,24.30
2019-05-18T14:50:18.747Z,24.30
2019-05-18T14:52:48.201Z,24.00
2019-05-18T14:55:32.755Z,23.90
2019-05-18T14:57:50.872Z,24.00
2019-05-18T15:00:21.362Z,24.20
2019-05-18T15:02:50.748Z,24.20
2019-05-18T15:05:20.282Z,24.30
2019-05-18T15:07:49.677Z,24.10
2019-05-18T15:10:20.065Z,24.30
2019-05-18T15:12:49.454Z,24.40
2019-05-18T15:15:19.556Z,24.20
2019-05-18T15:17:48.953Z,24.30
2019-05-18T15:20:18.938Z,24.00
2019-05-18T15:22:48.315Z,24.00
2019-05-18T15:25:18.039Z,24.20
2019-05-18T15:27:47.431Z,24.10
2019-05-18T15:30:17.418Z,24.10
2019-05-18T15:32:46.810Z,24.20
2019-05-18T15:35:16.590Z,24.40
2019-05-18T15:37:45.994Z,24.60
2019-05-18T15:40:15.618Z,24.60
2019-05-18T15:42:45.010Z,24.70
2019-05-18T15:45:16.372Z,24.60
2019-05-18T15:47:45.824Z,24.70
2019-05-18T15:50:16.230Z,24.80
2019-05-18T15:52:45.706Z,25.10
2019-05-18T15:55:16.734Z,25.10
2019-05-18T15:57:46.126Z,25.10
2019-05-18T16:00:16.918Z,25.30
2019-05-18T16:02:46.306Z,25.60
2019-05-18T16:05:16.702Z,25.70
2019-05-18T16:07:46.082Z,25.70
2019-05-18T16:10:16.731Z,25.80
2019-05-18T16:12:46.477Z,25.80
2019-05-18T16:15:16.469Z,25.80
2019-05-18T16:17:45.858Z,25.80
2019-05-18T16:20:16.053Z,25.80
2019-05-18T16:22:45.443Z,25.70
2019-05-18T16:25:15.342Z,25.50
2019-05-18T16:27:44.725Z,25.60
2019-05-18T16:30:15.019Z,25.50
2019-05-18T16:32:44.475Z,25.50
2019-05-18T16:35:14.665Z,25.40
2019-05-18T16:37:44.053Z,25.30
2019-05-18T16:40:14.154Z,25.30
2019-05-18T16:42:46.463Z,25.10
2019-05-18T16:45:14.982Z,24.80
2019-05-18T16:47:44.350Z,24.00
2019-05-18T16:50:14.552Z,23.70
2019-05-18T16:52:43.931Z,23.40
2019-05-18T16:55:13.835Z,23.60
2019-05-18T16:57:43.197Z,23.50
2019-05-18T17:00:16.443Z,23.60
2019-05-18T17:02:45.946Z,23.50
2019-05-18T17:05:16.111Z,23.20
2019-05-18T17:07:45.499Z,23.00
2019-05-18T17:10:15.682Z,22.90
2019-05-18T17:12:45.141Z,22.80
2019-05-18T17:15:15.331Z,22.80
2019-05-18T17:17:44.714Z,22.70
2019-05-18T17:20:14.822Z,22.50
2019-05-18T17:22:44.204Z,22.20
2019-05-18T17:25:13.990Z,22.20
2019-05-18T17:27:43.376Z,22.00
2019-05-18T17:30:13.473Z,22.10
2019-05-18T17:32:42.878Z,22.10
2019-05-18T17:35:13.132Z,21.80
2019-05-18T17:37:42.539Z,21.60
2019-05-18T17:40:12.152Z,21.60
2019-05-18T17:42:41.586Z,21.30
2019-05-18T17:45:11.616Z,21.10
2019-05-18T17:47:41.007Z,21.00
2019-05-18T17:50:12.662Z,21.10
2019-05-18T17:52:42.060Z,21.10
2019-05-18T17:55:16.251Z,21.00
2019-05-18T17:57:43.853Z,20.80
2019-05-18T18:00:14.136Z,20.70
2019-05-18T18:02:43.517Z,20.60
2019-05-18T18:05:13.319Z,20.40
2019-05-18T18:07:42.697Z,20.30
2019-05-18T18:10:14.190Z,20.20
2019-05-18T18:12:43.575Z,20.10
2019-05-18T18:15:14.652Z,19.90
2019-05-18T18:17:44.033Z,19.80
2019-05-18T18:20:14.125Z,19.80
2019-05-18T18:22:43.502Z,19.70
2019-05-18T18:25:13.293Z,19.70
2019-05-18T18:27:42.703Z,19.60
2019-05-18T18:30:13.196Z,19.50
2019-05-18T18:32:42.837Z,19.40
2019-05-18T18:35:12.831Z,19.40
2019-05-18T18:37:42.215Z,19.40
2019-05-18T18:40:12.014Z,19.40
2019-05-18T18:42:41.396Z,19.30
2019-05-18T18:45:11.382Z,19.10
2019-05-18T18:47:40.762Z,18.90
2019-05-18T18:50:11.061Z,18.80
2019-05-18T18:52:40.439Z,18.60
2019-05-18T18:55:10.629Z,18.50
2019-05-18T18:57:41.981Z,18.40
2019-05-18T19:00:12.300Z,18.30
2019-05-18T19:02:41.676Z,18.20
2019-05-18T19:05:12.143Z,18.10
2019-05-18T19:07:41.525Z,18.10
2019-05-18T19:10:11.819Z,18.10
2019-05-18T19:12:41.567Z,18.00
2019-05-18T19:15:11.855Z,18.10
2019-05-18T19:17:41.241Z,18.00
2019-05-18T19:20:12.272Z,18.00
2019-05-18T19:22:41.650Z,18.00
2019-05-18T19:25:11.435Z,18.00
2019-05-18T19:27:52.708Z,17.90
2019-05-18T19:30:12.268Z,17.90
2019-05-18T19:32:41.680Z,17.80
2019-05-18T19:35:11.208Z,17.80
2019-05-18T19:37:40.556Z,17.70
2019-05-18T19:40:10.541Z,17.60
2019-05-18T19:42:40.095Z,17.60
2019-05-18T19:45:11.763Z,17.60
2019-05-18T19:47:41.146Z,17.60
2019-05-18T19:50:11.736Z,17.50
2019-05-18T19:52:41.119Z,17.40
2019-05-18T19:55:10.679Z,17.40
2019-05-18T19:57:40.030Z,17.30
2019-05-18T20:00:11.135Z,17.30
2019-05-18T20:02:40.527Z,17.20
2019-05-18T20:05:10.724Z,17.20
2019-05-18T20:07:40.100Z,17.10
2019-05-18T20:10:12.189Z,17.00
2019-05-18T20:12:41.570Z,16.90
2019-05-18T20:15:11.569Z,16.90
2019-05-18T20:17:40.957Z,16.90
2019-05-18T20:20:11.944Z,16.90
2019-05-18T20:22:41.334Z,16.90
2019-05-18T20:25:11.029Z,16.80
2019-05-18T20:27:40.415Z,16.90
2019-05-18T20:30:10.818Z,16.90
2019-05-18T20:32:40.245Z,16.80
2019-05-18T20:35:10.237Z,16.70
2019-05-18T20:37:39.586Z,16.60
2019-05-18T20:40:09.778Z,16.50
2019-05-18T20:42:39.165Z,16.50
2019-05-18T20:45:10.054Z,16.40
2019-05-18T20:47:39.433Z,16.40
2019-05-18T20:50:09.216Z,16.40
2019-05-18T20:52:38.597Z,16.40
2019-05-18T20:55:08.216Z,16.40
2019-05-18T20:57:37.608Z,16.30
2019-05-18T21:00:08.009Z,16.30
2019-05-18T21:02:37.386Z,16.20
2019-05-18T21:05:08.464Z,16.30
2019-05-18T21:07:38.028Z,16.20
2019-05-18T21:10:11.263Z,16.10
2019-05-18T21:12:40.615Z,16.00
2019-05-18T21:15:11.929Z,16.10
2019-05-18T21:17:41.302Z,16.10
2019-05-18T21:20:11.294Z,15.90
2019-05-18T21:22:40.673Z,15.90
2019-05-18T21:25:10.471Z,15.90
2019-05-18T21:27:39.844Z,16.00
2019-05-18T21:30:09.662Z,16.00
2019-05-18T21:32:39.060Z,15.90
2019-05-18T21:35:08.793Z,16.00
2019-05-18T21:37:38.180Z,16.00
2019-05-18T21:40:08.760Z,16.00
2019-05-18T21:42:38.141Z,16.00
2019-05-18T21:45:08.768Z,16.10
2019-05-18T21:47:38.150Z,16.00
2019-05-18T21:50:09.439Z,16.00
2019-05-18T21:52:41.867Z,16.00
2019-05-18T21:55:10.351Z,16.00
2019-05-18T21:57:39.723Z,16.00
2019-05-18T22:00:11.780Z,16.10
2019-05-18T22:02:41.177Z,16.10
2019-05-18T22:05:10.894Z,16.10
2019-05-18T22:07:40.276Z,16.10
2019-05-18T22:10:24.749Z,16.10
2019-05-18T22:12:41.405Z,16.10
2019-05-18T22:15:11.232Z,16.00
2019-05-18T22:17:58.365Z,16.00
2019-05-18T22:20:28.063Z,15.90
2019-05-18T22:22:57.437Z,15.90
2019-05-18T22:25:26.816Z,15.80
2019-05-18T22:27:56.202Z,15.80
2019-05-18T22:30:25.867Z,15.80
2019-05-18T22:32:55.265Z,15.80
2019-05-18T22:35:24.653Z,15.80
2019-05-18T22:37:54.166Z,15.80
2019-05-18T22:40:23.494Z,15.80
2019-05-18T22:42:52.903Z,15.80
2019-05-18T22:45:22.283Z,15.70
2019-05-18T22:47:51.671Z,15.70
2019-05-18T22:50:21.484Z,15.70
2019-05-18T22:52:50.902Z,15.70
2019-05-18T22:55:20.358Z,15.70
2019-05-18T22:57:49.732Z,15.70
2019-05-18T23:00:20.357Z,15.70
2019-05-18T23:02:49.918Z,15.70
2019-05-18T23:05:19.351Z,15.60
2019-05-18T23:07:48.735Z,15.50
2019-05-18T23:10:18.629Z,15.50
2019-05-18T23:12:48.014Z,15.50
2019-05-18T23:15:17.828Z,15.50
2019-05-18T23:17:47.216Z,15.40
2019-05-18T23:20:17.275Z,15.30
2019-05-18T23:22:46.706Z,15.30
2019-05-18T23:25:16.398Z,15.30
2019-05-18T23:27:45.784Z,15.30
2019-05-18T23:30:15.430Z,15.30
2019-05-18T23:32:44.808Z,15.30
2019-05-18T23:35:14.189Z,15.40
2019-05-18T23:37:43.570Z,15.40
2019-05-18T23:40:13.763Z,15.40
2019-05-18T23:42:43.138Z,15.40
2019-05-18T23:45:12.924Z,15.40
2019-05-18T23:47:42.311Z,15.30
2019-05-18T23:50:12.198Z,15.30
2019-05-18T23:52:41.584Z,15.30
2019-05-18T23:55:11.471Z,15.30
2019-05-18T23:57:40.858Z,15.30
